createdAt,value
2016-04-20T08:28:18.378Z,51
2016-04-20T08:29:16.427Z,51
2016-04-20T08:30:14.493Z,51
2016-04-20T08:31:12.511Z,51
2016-04-20T08:32:10.560Z,51
2016-04-20T08:33:08.563Z,51
2016-04-20T08:34:06.925Z,51
2016-04-20T08:35:04.740Z,51
2016-04-20T08:36:05.712Z,51
2016-04-20T08:37:03.762Z,51
2016-04-20T08:38:01.779Z,51
2016-04-20T08:38:59.751Z,51
2016-04-20T08:39:57.863Z,51
2016-04-20T08:40:55.882Z,51
2016-04-20T08:41:54.040Z,51
2016-04-20T08:42:51.949Z,51
2016-04-20T08:43:50.109Z,51
2016-04-20T08:44:48.080Z,51
2016-04-20T08:45:49.098Z,51
2016-04-20T08:46:47.129Z,51
2016-04-20T08:47:44.898Z,51
2016-04-20T08:48:42.698Z,51
2016-04-20T08:49:40.545Z,51
2016-04-20T08:50:38.281Z,51
2016-04-20T08:51:36.034Z,51
2016-04-20T08:52:33.817Z,51
2016-04-20T08:53:31.586Z,51
2016-04-20T08:54:29.417Z,51
2016-04-20T08:55:30.450Z,51
2016-04-20T08:56:28.250Z,51
2016-04-20T08:57:26.002Z,51
2016-04-20T08:58:23.912Z,51
2016-04-20T08:59:21.617Z,51
2016-04-20T09:00:19.417Z,51
2016-04-20T09:01:17.186Z,51
2016-04-20T09:02:15.000Z,51
2016-04-20T09:03:12.941Z,51
2016-04-20T09:04:10.584Z,51
2016-04-20T09:05:11.696Z,51
2016-04-20T09:06:09.401Z,51
2016-04-20T09:07:07.171Z,51
2016-04-20T09:08:04.891Z,51
2016-04-20T09:09:02.676Z,51
2016-04-20T09:10:00.569Z,51
2016-04-20T09:10:58.244Z,51
2016-04-20T09:11:56.012Z,51
2016-04-20T09:12:53.796Z,51
2016-04-20T09:13:51.627Z,51
2016-04-20T09:14:52.660Z,51
2016-04-20T09:15:50.445Z,51
2016-04-20T09:16:48.462Z,51
2016-04-20T09:17:46.525Z,52
2016-04-20T09:18:44.778Z,52
2016-04-20T09:19:43.093Z,52
2016-04-20T09:20:41.378Z,52
2016-04-20T09:21:39.630Z,52
2016-04-20T09:22:38.053Z,52
2016-04-20T09:23:36.385Z,52
2016-04-20T09:24:37.278Z,52
2016-04-20T09:25:35.936Z,52
2016-04-20T09:26:34.377Z,52
2016-04-20T09:27:32.895Z,53
2016-04-20T09:28:31.788Z,53
2016-04-20T09:29:30.588Z,53
2016-04-20T09:30:29.279Z,53
2016-04-20T09:31:28.077Z,53
2016-04-20T09:32:26.862Z,53
2016-04-20T09:33:25.723Z,53
2016-04-20T09:34:26.835Z,53
2016-04-20T09:35:25.667Z,53
2016-04-20T09:36:24.684Z,53
2016-04-20T09:37:23.625Z,53
2016-04-20T09:38:22.674Z,53
2016-04-20T09:39:21.818Z,53
2016-04-20T09:40:20.742Z,54
2016-04-20T09:41:20.183Z,54
2016-04-20T09:42:19.357Z,54
2016-04-20T09:43:18.828Z,54
2016-04-20T09:44:19.847Z,53
2016-04-20T09:45:18.896Z,53
2016-04-20T09:46:17.821Z,54
2016-04-20T09:47:17.230Z,54
2016-04-20T09:48:16.530Z,54
2016-04-20T09:49:15.720Z,54
2016-04-20T09:50:15.019Z,54
2016-04-20T09:51:14.350Z,54
2016-04-20T09:52:13.743Z,54
2016-04-20T09:53:13.011Z,54
2016-04-20T09:54:14.014Z,54
2016-04-20T09:55:13.330Z,54
2016-04-20T09:56:12.598Z,54
2016-04-20T09:57:11.929Z,54
2016-04-20T09:58:11.197Z,54
2016-04-20T09:59:10.496Z,54
2016-04-20T10:00:09.827Z,54
2016-04-20T10:01:09.095Z,54
2016-04-20T10:02:08.410Z,54
2016-04-20T10:03:08.023Z,54
2016-04-20T10:04:09.025Z,54
2016-04-20T10:05:08.325Z,54
2016-04-20T10:06:07.640Z,54
2016-04-20T10:07:06.923Z,54
2016-04-20T10:08:06.270Z,54
2016-04-20T10:09:05.539Z,54
2016-04-20T10:10:04.839Z,54
2016-04-20T10:11:04.248Z,54
2016-04-20T10:12:03.437Z,54
2016-04-20T10:13:02.800Z,54
2016-04-20T10:14:03.818Z,54
2016-04-20T10:15:03.228Z,54
2016-04-20T10:16:02.402Z,54
2016-04-20T10:17:01.717Z,54
2016-04-20T10:18:01.048Z,54
2016-04-20T10:19:00.316Z,54
2016-04-20T10:19:59.834Z,54
2016-04-20T10:20:59.166Z,54
2016-04-20T10:21:58.464Z,54
2016-04-20T10:22:57.936Z,54
2016-04-20T10:23:58.877Z,54
2016-04-20T10:24:58.144Z,54
2016-04-20T10:25:57.460Z,54
2016-04-20T10:26:56.852Z,54
2016-04-20T10:27:56.043Z,54
2016-04-20T10:28:55.343Z,54
2016-04-20T10:29:54.643Z,54
2016-04-20T10:30:53.942Z,54
2016-04-20T10:31:53.351Z,54
2016-04-20T10:32:52.604Z,54
2016-04-20T10:33:53.622Z,54
2016-04-20T10:34:52.907Z,54
2016-04-20T10:35:52.206Z,54
2016-04-20T10:36:51.504Z,54
2016-04-20T10:37:50.820Z,54
2016-04-20T10:38:50.101Z,54
2016-04-20T10:39:49.417Z,54
2016-04-20T10:40:48.716Z,54
2016-04-20T10:41:48.016Z,54
2016-04-20T10:42:47.362Z,54
2016-04-20T10:43:48.396Z,54
2016-04-20T10:44:47.695Z,54
2016-04-20T10:45:46.995Z,54
2016-04-20T10:46:46.295Z,54
2016-04-20T10:47:45.736Z,54
2016-04-20T10:48:44.894Z,54
2016-04-20T10:49:44.225Z,54
2016-04-20T10:50:43.493Z,54
2016-04-20T10:51:42.792Z,54
2016-04-20T10:52:42.155Z,54
2016-04-20T10:53:43.172Z,54
2016-04-20T10:54:42.582Z,54
2016-04-20T10:55:41.772Z,54
2016-04-20T10:56:41.072Z,54
2016-04-20T10:57:40.387Z,54
2016-04-20T10:58:39.671Z,54
2016-04-20T10:59:38.970Z,54
2016-04-20T11:00:38.270Z,54
2016-04-20T11:01:37.694Z,54
2016-04-20T11:02:36.932Z,54
2016-04-20T11:03:37.950Z,54
2016-04-20T11:04:37.359Z,54
2016-04-20T11:05:36.580Z,54
2016-04-20T11:06:35.848Z,54
2016-04-20T11:07:35.148Z,54
2016-04-20T11:08:34.463Z,54
2016-04-20T11:09:33.763Z,54
2016-04-20T11:10:33.172Z,54
2016-04-20T11:11:32.378Z,54
2016-04-20T11:12:31.709Z,54
2016-04-20T11:13:32.727Z,54
2016-04-20T11:14:32.151Z,54
2016-04-20T11:15:31.326Z,53
2016-04-20T11:16:30.484Z,54
2016-04-20T11:17:29.675Z,54
2016-04-20T11:18:28.975Z,54
2016-04-20T11:19:28.275Z,54
2016-04-20T11:20:27.684Z,54
2016-04-20T11:21:26.889Z,54
2016-04-20T11:22:26.330Z,54
2016-04-20T11:23:28.363Z,54
2016-04-20T11:24:26.553Z,54
2016-04-20T11:25:25.853Z,54
2016-04-20T11:26:25.152Z,54
2016-04-20T11:27:24.452Z,54
2016-04-20T11:28:23.751Z,54
2016-04-20T11:29:23.176Z,54
2016-04-20T11:30:22.382Z,54
2016-04-20T11:31:21.650Z,54
2016-04-20T11:32:21.028Z,54
2016-04-20T11:33:22.156Z,54
2016-04-20T11:34:21.330Z,54
2016-04-20T11:35:20.708Z,54
2016-04-20T11:36:19.929Z,54
2016-04-20T11:37:19.338Z,54
2016-04-20T11:38:18.669Z,54
2016-04-20T11:39:17.829Z,54
2016-04-20T11:40:17.143Z,54
2016-04-20T11:41:16.427Z,54
2016-04-20T11:42:15.789Z,54
2016-04-20T11:43:16.807Z,54
2016-04-20T11:44:16.106Z,54
2016-04-20T11:45:15.392Z,54
2016-04-20T11:46:14.690Z,54
2016-04-20T11:47:14.021Z,54
2016-04-20T11:48:13.306Z,53
2016-04-20T11:49:12.339Z,53
2016-04-20T11:50:11.389Z,53
2016-04-20T11:51:10.439Z,53
2016-04-20T11:52:09.535Z,53
2016-04-20T11:53:10.569Z,53
2016-04-20T11:54:09.603Z,53
2016-04-20T11:55:08.652Z,53
2016-04-20T11:56:07.827Z,54
2016-04-20T11:57:07.001Z,53
2016-04-20T11:58:06.051Z,54
2016-04-20T11:59:05.351Z,53
2016-04-20T12:01:03.731Z,54
2016-04-20T12:02:03.062Z,54
2016-04-20T12:03:04.110Z,53
2016-04-20T12:04:03.113Z,53
2016-04-20T12:05:02.164Z,54
2016-04-20T12:06:01.573Z,54
2016-04-20T12:07:00.763Z,54
2016-04-20T12:08:00.062Z,54
2016-04-20T12:08:59.377Z,54
2016-04-20T12:09:58.676Z,54
2016-04-20T12:10:57.976Z,54
2016-04-20T12:11:57.340Z,54
2016-04-20T12:12:58.373Z,54
2016-04-20T12:13:57.657Z,54
2016-04-20T12:14:57.081Z,54
2016-04-20T12:15:56.255Z,54
2016-04-20T12:16:55.536Z,54
2016-04-20T12:17:54.853Z,54
2016-04-20T12:18:54.277Z,54
2016-04-20T12:19:53.451Z,54
2016-04-20T12:20:52.751Z,54
2016-04-20T12:21:52.113Z,54
2016-04-20T12:22:53.116Z,54
2016-04-20T12:23:52.431Z,54
2016-04-20T12:24:51.839Z,54
2016-04-20T12:25:51.030Z,54
2016-04-20T12:26:50.329Z,54
2016-04-20T12:27:49.660Z,54
2016-04-20T12:28:48.928Z,54
2016-04-20T12:29:48.228Z,54
2016-04-20T12:30:47.527Z,54
2016-04-20T12:31:46.906Z,54
2016-04-20T12:32:48.017Z,54
2016-04-20T12:33:47.207Z,54
2016-04-20T12:34:46.507Z,54
2016-04-20T12:35:46.119Z,54
2016-04-20T12:37:44.407Z,54
2016-04-20T12:38:43.815Z,54
2016-04-20T12:39:43.005Z,54
2016-04-20T12:40:42.430Z,54
2016-04-20T12:41:41.668Z,54
2016-04-20T12:42:42.670Z,54
2016-04-20T12:43:41.968Z,54
2016-04-20T12:44:41.284Z,54
2016-04-20T12:45:40.693Z,54
2016-04-20T12:46:39.868Z,54
2016-04-20T12:47:39.168Z,54
2016-04-20T12:48:38.467Z,54
2016-04-20T12:49:37.767Z,54
2016-04-20T12:50:37.112Z,54
2016-04-20T12:51:36.553Z,54
2016-04-20T12:52:37.447Z,54
2016-04-20T12:53:36.870Z,54
2016-04-20T12:54:36.061Z,54
2016-04-20T12:55:35.470Z,54
2016-04-20T12:56:34.645Z,54
2016-04-20T12:57:34.100Z,54
2016-04-20T12:58:33.259Z,54
2016-04-20T12:59:32.559Z,54
2016-04-20T13:00:31.889Z,54
2016-04-20T13:01:31.220Z,54
2016-04-20T13:02:32.223Z,54
2016-04-20T13:03:31.523Z,54
2016-04-20T13:04:30.822Z,54
2016-04-20T13:05:30.138Z,54
2016-04-20T13:06:29.437Z,54
2016-04-20T13:07:28.737Z,54
2016-04-20T13:08:28.036Z,54
2016-04-20T13:09:27.336Z,54
2016-04-20T13:10:26.635Z,54
2016-04-20T13:11:25.918Z,54
2016-04-20T13:12:27.140Z,54
2016-04-20T13:13:26.878Z,54
2016-04-20T13:14:25.599Z,54
2016-04-20T13:15:24.915Z,54
2016-04-20T13:16:24.323Z,54
2016-04-20T13:17:23.514Z,54
2016-04-20T13:18:22.813Z,54
2016-04-20T13:19:22.112Z,54
2016-04-20T13:20:21.522Z,54
2016-04-20T13:21:20.775Z,54
2016-04-20T13:22:21.792Z,54
2016-04-20T13:23:21.092Z,54
2016-04-20T13:24:20.391Z,54
2016-04-20T13:25:19.691Z,54
2016-04-20T13:26:18.991Z,54
2016-04-20T13:27:18.306Z,54
2016-04-20T13:28:17.606Z,54
2016-04-20T13:29:16.905Z,54
2016-04-20T13:30:16.205Z,54
2016-04-20T13:31:15.551Z,54
2016-04-20T13:32:16.570Z,54
2016-04-20T13:33:15.885Z,54
2016-04-20T13:34:15.294Z,54
2016-04-20T13:35:14.468Z,54
2016-04-20T13:36:13.799Z,54
2016-04-20T13:37:13.082Z,54
2016-04-20T13:38:12.508Z,54
2016-04-20T13:39:11.698Z,54
2016-04-20T13:40:10.997Z,54
2016-04-20T13:41:10.344Z,54
2016-04-20T13:42:11.362Z,54
2016-04-20T13:44:09.962Z,54
2016-04-20T13:45:09.260Z,54
2016-04-20T13:46:08.560Z,54
2016-04-20T13:47:07.859Z,54
2016-04-20T13:48:07.160Z,54
2016-04-20T13:49:06.459Z,54
2016-04-20T13:50:05.759Z,54
2016-04-20T13:51:05.245Z,54
2016-04-20T13:52:06.140Z,54
2016-04-20T13:53:05.439Z,54
2016-04-20T13:54:04.738Z,54
2016-04-20T13:55:04.037Z,54
2016-04-20T13:56:03.353Z,54
2016-04-20T13:57:02.652Z,54
2016-04-20T13:58:02.078Z,54
2016-04-20T14:00:00.551Z,54
2016-04-20T14:00:59.911Z,54
2016-04-20T14:02:00.916Z,54
2016-04-20T14:03:00.213Z,54
2016-04-20T14:03:59.638Z,54
2016-04-20T14:04:59.343Z,54
2016-04-20T14:05:57.971Z,54
2016-04-20T14:06:57.926Z,54
2016-04-20T14:08:56.651Z,54
2016-04-20T14:09:55.825Z,54
2016-04-20T14:10:55.313Z,54
2016-04-20T14:11:56.205Z,54
2016-04-20T14:12:55.521Z,54
2016-04-20T14:13:54.805Z,54
2016-04-20T14:14:54.105Z,54
2016-04-20T14:15:53.404Z,54
2016-04-20T14:16:52.703Z,54
2016-04-20T14:17:52.003Z,54
2016-04-20T14:18:51.318Z,54
2016-04-20T14:19:50.618Z,54
2016-04-20T14:20:50.090Z,54
2016-04-20T14:21:50.998Z,54
2016-04-20T14:22:50.408Z,54
2016-04-20T14:23:49.598Z,54
2016-04-20T14:24:48.898Z,54
2016-04-20T14:25:48.213Z,54
2016-04-20T14:26:47.513Z,54
2016-04-20T14:27:46.812Z,54
2016-04-20T14:28:46.096Z,54
2016-04-20T14:29:45.521Z,54
2016-04-20T14:30:44.758Z,54
2016-04-20T14:31:45.776Z,54
2016-04-20T14:32:45.075Z,54
2016-04-20T14:33:44.375Z,54
2016-04-20T14:34:43.800Z,54
2016-04-20T14:35:42.990Z,54
2016-04-20T14:36:42.289Z,54
2016-04-20T14:37:41.698Z,54
2016-04-20T14:38:41.014Z,54
2016-04-20T14:39:40.314Z,54
2016-04-20T14:40:39.581Z,54
2016-04-20T14:41:40.569Z,54
2016-04-20T14:42:39.994Z,54
2016-04-20T14:43:39.183Z,54
2016-04-20T14:44:38.467Z,54
2016-04-20T14:45:37.783Z,54
2016-04-20T14:46:37.083Z,54
2016-04-20T14:47:36.382Z,54
2016-04-20T14:48:35.806Z,54
2016-04-20T14:49:34.981Z,54
2016-04-20T14:50:34.452Z,54
2016-04-20T14:51:35.361Z,54
2016-04-20T14:52:34.660Z,54
2016-04-20T14:53:33.960Z,54
2016-04-20T14:54:33.260Z,54
2016-04-20T14:55:32.575Z,54
2016-04-20T14:56:31.874Z,54
2016-04-20T14:57:31.284Z,54
2016-04-20T14:58:30.474Z,54
2016-04-20T14:59:29.883Z,54
2016-04-20T15:00:29.245Z,54
2016-04-20T15:01:30.138Z,54
2016-04-20T15:02:29.437Z,54
2016-04-20T15:03:28.753Z,54
2016-04-20T15:04:28.052Z,54
2016-04-20T15:05:27.351Z,54
2016-04-20T15:06:26.651Z,54
2016-04-20T15:07:25.951Z,54
2016-04-20T15:08:25.392Z,54
2016-04-20T15:09:24.567Z,54
2016-04-20T15:10:23.912Z,54
2016-04-20T15:11:24.931Z,54
2016-04-20T15:12:24.230Z,54
2016-04-20T15:13:23.530Z,54
2016-04-20T15:14:22.829Z,54
2016-04-20T15:15:22.128Z,54
2016-04-20T15:16:21.428Z,54
2016-04-20T15:17:20.727Z,54
2016-04-20T15:18:20.027Z,54
2016-04-20T15:19:19.327Z,54
2016-04-20T15:20:18.689Z,54
2016-04-20T15:21:19.723Z,54
2016-04-20T15:22:19.007Z,54
2016-04-20T15:23:18.307Z,54
2016-04-20T15:24:17.621Z,54
2016-04-20T15:25:16.921Z,54
2016-04-20T15:26:16.330Z,54
2016-04-20T15:27:15.520Z,54
2016-04-20T15:28:14.946Z,54
2016-04-20T15:29:14.135Z,54
2016-04-20T15:30:13.607Z,54
2016-04-20T15:31:14.500Z,54
2016-04-20T15:32:13.924Z,54
2016-04-20T15:33:13.099Z,54
2016-04-20T15:34:12.414Z,54
2016-04-20T15:35:11.714Z,54
2016-04-20T15:36:11.002Z,54
2016-04-20T15:37:10.317Z,54
2016-04-20T15:38:09.727Z,54
2016-04-20T15:39:08.900Z,54
2016-04-20T15:40:08.264Z,54
2016-04-20T15:41:09.281Z,54
2016-04-20T15:42:08.581Z,54
2016-04-20T15:43:07.881Z,54
2016-04-20T15:44:07.306Z,54
2016-04-20T15:45:06.480Z,54
2016-04-20T15:46:05.905Z,54
2016-04-20T15:47:05.095Z,54
2016-04-20T15:48:04.505Z,54
2016-04-20T15:49:03.692Z,54
2016-04-20T15:50:03.069Z,54
2016-04-20T15:51:04.072Z,54
2016-04-20T15:52:03.355Z,54
2016-04-20T15:53:02.671Z,54
2016-04-20T15:54:01.971Z,54
2016-04-20T15:55:01.270Z,54
2016-04-20T15:56:00.569Z,54
2016-04-20T15:56:59.993Z,54
2016-04-20T15:57:59.184Z,54
2016-04-20T15:58:58.521Z,54
2016-04-20T15:59:57.924Z,54
2016-04-20T16:00:58.969Z,54
2016-04-20T16:01:58.247Z,54
2016-04-20T16:02:57.640Z,54
2016-04-20T16:03:57.161Z,54
2016-04-20T16:04:56.415Z,54
2016-04-20T16:06:54.941Z,54
2016-04-20T16:07:54.238Z,54
2016-04-20T16:08:53.543Z,54
2016-04-20T16:09:52.911Z,54
2016-04-20T16:10:53.934Z,54
2016-04-20T16:11:53.224Z,54
2016-04-20T16:12:52.667Z,54
2016-04-20T16:13:51.969Z,54
2016-04-20T16:14:51.146Z,54
2016-04-20T16:15:50.448Z,54
2016-04-20T16:16:49.748Z,54
2016-04-20T16:17:49.081Z,54
2016-04-20T16:18:48.366Z,54
2016-04-20T16:19:47.838Z,54
2016-04-20T16:20:48.733Z,54
2016-04-20T16:21:48.048Z,54
2016-04-20T16:22:47.349Z,54
2016-04-20T16:23:46.648Z,54
2016-04-20T16:24:45.948Z,54
2016-04-20T16:25:45.248Z,54
2016-04-20T16:26:44.563Z,54
2016-04-20T16:27:43.847Z,54
2016-04-20T16:28:43.163Z,54
2016-04-20T16:29:42.510Z,54
2016-04-20T16:30:43.528Z,54
2016-04-20T16:31:42.827Z,54
2016-04-20T16:32:42.127Z,54
2016-04-20T16:33:41.551Z,54
2016-04-20T16:34:40.726Z,54
2016-04-20T16:35:40.041Z,54
2016-04-20T16:36:39.340Z,54
2016-04-20T16:37:38.640Z,54
2016-04-20T16:38:37.940Z,54
2016-04-20T16:39:37.302Z,54
2016-04-20T16:40:38.304Z,54
2016-04-20T16:41:37.620Z,54
2016-04-20T16:42:36.920Z,54
2016-04-20T16:43:36.218Z,54
2016-04-20T16:44:35.550Z,54
2016-04-20T16:45:34.818Z,54
2016-04-20T16:46:34.117Z,54
2016-04-20T16:47:33.433Z,54
2016-04-20T16:48:32.714Z,54
2016-04-20T16:49:32.092Z,54
2016-04-20T16:50:33.223Z,54
2016-04-20T16:51:32.410Z,54
2016-04-20T16:52:31.709Z,54
2016-04-20T16:53:31.009Z,54
2016-04-20T16:54:30.308Z,54
2016-04-20T16:55:29.608Z,54
2016-04-20T16:56:28.908Z,54
2016-04-20T16:57:28.238Z,54
2016-04-20T16:58:27.522Z,54
2016-04-20T16:59:26.869Z,54
2016-04-20T17:00:27.903Z,54
2016-04-20T17:01:27.311Z,54
2016-04-20T17:02:26.502Z,54
2016-04-20T17:03:25.801Z,54
2016-04-20T17:04:25.085Z,54
2016-04-20T17:05:24.416Z,54
2016-04-20T17:06:23.700Z,54
2016-04-20T17:07:22.999Z,54
2016-04-20T17:08:22.299Z,54
2016-04-20T17:09:21.661Z,54
2016-04-20T17:10:22.679Z,54
2016-04-20T17:11:21.979Z,54
2016-04-20T17:12:21.294Z,54
2016-04-20T17:13:20.704Z,54
2016-04-20T17:14:19.893Z,54
2016-04-20T17:15:19.177Z,54
2016-04-20T17:16:18.602Z,54
2016-04-20T17:17:17.793Z,54
2016-04-20T17:18:17.092Z,54
2016-04-20T17:19:16.562Z,54
2016-04-20T17:20:17.456Z,54
2016-04-20T17:21:16.772Z,54
2016-04-20T17:22:16.118Z,54
2016-04-20T17:23:15.371Z,54
2016-04-20T17:24:14.795Z,54
2016-04-20T17:25:13.986Z,54
2016-04-20T17:26:13.286Z,54
2016-04-20T17:27:12.600Z,54
2016-04-20T17:28:11.883Z,54
2016-04-20T17:29:11.277Z,54
2016-04-20T17:30:12.265Z,54
2016-04-20T17:31:11.564Z,54
2016-04-20T17:32:10.863Z,54
2016-04-20T17:33:10.289Z,54
2016-04-20T17:34:09.478Z,54
2016-04-20T17:35:08.778Z,54
2016-04-20T17:36:08.078Z,54
2016-04-20T17:37:07.377Z,54
2016-04-20T17:38:06.677Z,54
2016-04-20T17:39:06.038Z,54
2016-04-20T17:40:07.057Z,54
2016-04-20T17:41:06.357Z,54
2016-04-20T17:42:05.688Z,54
2016-04-20T17:43:04.957Z,54
2016-04-20T17:44:04.380Z,54
2016-04-20T17:45:03.587Z,54
2016-04-20T17:46:02.980Z,54
2016-04-20T17:47:02.154Z,54
2016-04-20T17:48:01.470Z,54
2016-04-20T17:49:00.940Z,54
2016-04-20T17:50:01.835Z,54
2016-04-20T17:51:01.243Z,54
2016-04-20T17:52:00.434Z,54
2016-04-20T17:52:59.873Z,54
2016-04-20T17:54:00.366Z,54
2016-04-20T17:54:58.448Z,54
2016-04-20T17:56:56.937Z,54
2016-04-20T17:57:56.237Z,54
2016-04-20T17:58:55.708Z,54
2016-04-20T17:59:56.617Z,54
2016-04-20T18:00:55.916Z,54
2016-04-20T18:01:55.341Z,54
2016-04-20T18:02:54.703Z,54
2016-04-20T18:03:53.830Z,54
2016-04-20T18:04:53.131Z,54
2016-04-20T18:05:52.430Z,54
2016-04-20T18:06:53.400Z,54
2016-04-20T18:07:51.027Z,54
2016-04-20T18:08:50.499Z,54
2016-04-20T18:09:51.408Z,54
2016-04-20T18:10:50.706Z,54
2016-04-20T18:11:50.007Z,54
2016-04-20T18:12:49.306Z,54
2016-04-20T18:13:48.605Z,54
2016-04-20T18:14:47.905Z,54
2016-04-20T18:15:47.205Z,54
2016-04-20T18:16:46.505Z,54
2016-04-20T18:17:45.808Z,54
2016-04-20T18:18:45.279Z,54
2016-04-20T18:19:46.187Z,54
2016-04-20T18:20:45.488Z,54
2016-04-20T18:21:44.808Z,54
2016-04-20T18:22:44.108Z,54
2016-04-20T18:23:43.392Z,53
2016-04-20T18:24:42.206Z,52
2016-04-20T18:25:40.521Z,50
2016-04-20T18:26:42.181Z,49
2016-04-20T18:27:42.917Z,47
2016-04-20T18:28:42.764Z,46
2016-04-20T18:29:43.767Z,45
2016-04-20T18:30:42.847Z,45
2016-04-20T18:31:41.616Z,43
2016-04-20T18:32:40.010Z,42
2016-04-20T18:33:37.806Z,42
2016-04-20T18:34:35.449Z,42
2016-04-20T18:35:33.249Z,42
2016-04-20T18:36:34.830Z,41
2016-04-20T18:37:36.286Z,41
2016-04-20T18:38:37.288Z,40
2016-04-20T18:39:38.307Z,40
2016-04-20T18:40:38.872Z,39
2016-04-20T18:41:39.188Z,39
2016-04-20T18:42:39.502Z,40
2016-04-20T18:43:40.242Z,40
2016-04-20T18:44:41.010Z,41
2016-04-20T18:45:42.231Z,41
2016-04-20T18:46:43.563Z,42
2016-04-20T18:47:45.128Z,42
2016-04-20T18:49:43.976Z,43
2016-04-20T18:50:42.011Z,43
2016-04-20T18:51:40.294Z,43
2016-04-20T18:52:38.575Z,43
2016-04-20T18:53:36.876Z,44
2016-04-20T18:54:35.425Z,44
2016-04-20T18:55:33.959Z,45
2016-04-20T18:56:32.759Z,45
2016-04-20T18:57:31.574Z,45
2016-04-20T18:58:30.514Z,45
2016-04-20T18:59:31.408Z,45
2016-04-20T19:00:30.316Z,45
2016-04-20T19:01:28.992Z,45
2016-04-20T19:02:27.822Z,45
2016-04-20T19:03:26.965Z,45
2016-04-20T19:04:25.889Z,45
2016-04-20T19:05:24.955Z,45
2016-04-20T19:06:23.989Z,45
2016-04-20T19:07:23.039Z,45
2016-04-20T19:08:22.243Z,46
2016-04-20T19:09:23.168Z,46
2016-04-20T19:10:22.484Z,46
2016-04-20T19:11:21.877Z,46
2016-04-20T19:12:21.067Z,46
2016-04-20T19:13:20.524Z,46
2016-04-20T19:14:19.698Z,46
2016-04-20T19:15:18.951Z,46
2016-04-20T19:16:18.282Z,46
2016-04-20T19:17:17.596Z,46
2016-04-20T19:18:16.942Z,46
2016-04-20T19:19:17.929Z,46
2016-04-20T19:20:17.261Z,46
2016-04-20T19:21:16.779Z,46
2016-04-20T19:22:16.376Z,46
2016-04-20T19:23:15.894Z,46
2016-04-20T19:24:15.193Z,46
2016-04-20T19:25:14.742Z,46
2016-04-20T19:26:14.308Z,46
2016-04-20T19:27:13.983Z,46
2016-04-20T19:28:13.470Z,47
2016-04-20T19:29:14.503Z,47
2016-04-20T19:30:14.303Z,47
2016-04-20T19:31:14.228Z,47
2016-04-20T19:32:13.902Z,47
2016-04-20T19:33:13.718Z,47
2016-04-20T19:34:13.533Z,47
2016-04-20T19:35:13.347Z,46
2016-04-20T19:36:12.741Z,45
2016-04-20T19:37:11.416Z,43
2016-04-20T19:38:09.512Z,42
2016-04-20T19:39:10.547Z,41
2016-04-20T19:40:11.861Z,41
2016-04-20T19:41:13.052Z,40
2016-04-20T19:42:13.883Z,40
2016-04-20T19:43:14.588Z,40
2016-04-20T19:44:15.154Z,39
2016-04-20T19:45:15.453Z,39
2016-04-20T19:46:15.768Z,39
2016-04-20T19:47:16.115Z,39
2016-04-20T19:48:16.196Z,38
2016-04-20T19:49:17.323Z,38
2016-04-20T19:50:17.013Z,38
2016-04-20T19:51:16.829Z,38
2016-04-20T19:52:16.643Z,38
2016-04-20T19:53:16.443Z,38
2016-04-20T19:54:16.352Z,38
2016-04-20T19:55:15.917Z,38
2016-04-20T19:56:15.358Z,37
2016-04-20T19:57:14.657Z,37
2016-04-20T19:58:14.003Z,37
2016-04-20T19:59:15.037Z,37
2016-04-20T20:00:14.384Z,37
2016-04-20T20:01:13.668Z,37
2016-04-20T20:02:13.233Z,37
2016-04-20T20:03:12.252Z,37
2016-04-20T20:04:11.660Z,37
2016-04-20T20:05:10.836Z,37
2016-04-20T20:06:10.135Z,37
2016-04-20T20:07:09.466Z,37
2016-04-20T20:08:08.796Z,38
2016-04-20T20:09:09.924Z,38
2016-04-20T20:10:09.691Z,39
2016-04-20T20:11:09.694Z,39
2016-04-20T20:12:10.120Z,39
2016-04-20T20:13:10.434Z,40
2016-04-20T20:14:10.890Z,40
2016-04-20T20:15:11.471Z,40
2016-04-20T20:16:12.396Z,40
2016-04-20T20:17:13.211Z,40
2016-04-20T20:18:13.995Z,40
2016-04-20T20:19:14.982Z,40
2016-04-20T20:20:15.813Z,40
2016-04-20T20:21:16.643Z,40
2016-04-20T20:22:17.467Z,41
2016-04-20T20:23:18.542Z,41
2016-04-20T20:24:19.623Z,41
2016-04-20T20:25:20.688Z,41
2016-04-20T20:26:21.769Z,41
2016-04-20T20:27:22.849Z,41
2016-04-20T20:28:23.978Z,41
2016-04-20T20:29:24.995Z,41
2016-04-20T20:30:26.435Z,41
2016-04-20T20:31:27.767Z,41
2016-04-20T20:32:28.972Z,41
2016-04-20T20:33:30.428Z,41
2016-04-20T20:34:31.790Z,41
2016-04-20T20:35:32.965Z,41
2016-04-20T20:36:34.296Z,41
2016-04-20T20:37:35.641Z,41
2016-04-20T20:38:37.020Z,42
2016-04-20T20:39:38.038Z,42
2016-04-20T20:40:39.603Z,42
2016-04-20T20:41:41.309Z,42
2016-04-20T20:42:39.077Z,42
2016-04-20T20:43:36.751Z,42
2016-04-20T20:44:34.645Z,42
2016-04-20T20:45:32.007Z,42
2016-04-20T20:46:30.087Z,42
2016-04-20T20:47:27.998Z,42
2016-04-20T20:48:25.718Z,42
2016-04-20T20:49:26.845Z,42
2016-04-20T20:50:24.506Z,42
2016-04-20T20:51:22.398Z,43
2016-04-20T20:52:20.431Z,43
2016-04-20T20:53:18.481Z,43
2016-04-20T20:54:16.688Z,43
2016-04-20T20:55:14.425Z,43
2016-04-20T20:56:12.443Z,43
2016-04-20T20:57:10.492Z,43
2016-04-20T20:58:08.589Z,43
2016-04-20T20:59:09.591Z,43
2016-04-20T21:00:07.642Z,43
2016-04-20T21:01:05.660Z,43
2016-04-20T21:02:03.695Z,43
2016-04-20T21:03:01.978Z,43
2016-04-20T21:04:00.013Z,43
2016-04-20T21:04:58.312Z,43
2016-04-20T21:05:56.596Z,43
2016-04-20T21:06:54.880Z,43
2016-04-20T21:07:53.351Z,43
2016-04-20T21:08:54.260Z,43
2016-04-20T21:09:52.528Z,43
2016-04-20T21:10:50.559Z,43
2016-04-20T21:11:48.860Z,43
2016-04-20T21:12:47.143Z,43
2016-04-20T21:13:45.427Z,43
2016-04-20T21:14:43.711Z,43
2016-04-20T21:15:42.105Z,43
2016-04-20T21:16:40.280Z,43
2016-04-20T21:17:38.625Z,44
2016-04-20T21:18:39.769Z,44
2016-04-20T21:19:38.225Z,45
2016-04-20T21:20:36.977Z,45
2016-04-20T21:21:35.777Z,45
2016-04-20T21:22:34.545Z,45
2016-04-20T21:23:33.610Z,45
2016-04-20T21:24:32.785Z,46
2016-04-20T21:25:31.975Z,46
2016-04-20T21:26:31.274Z,46
2016-04-20T21:27:30.637Z,46
2016-04-20T21:28:31.655Z,46
2016-04-20T21:29:31.049Z,46
2016-04-20T21:30:30.238Z,46
2016-04-20T21:31:29.538Z,46
2016-04-20T21:32:28.963Z,46
2016-04-20T21:33:28.403Z,46
2016-04-20T21:34:28.062Z,46
2016-04-20T21:35:27.502Z,46
2016-04-20T21:36:27.176Z,46
2016-04-20T21:37:26.414Z,46
2016-04-20T21:38:27.432Z,46
2016-04-20T21:39:26.810Z,46
2016-04-20T21:40:26.048Z,46
2016-04-20T21:41:25.393Z,46
2016-04-20T21:42:24.770Z,46
2016-04-20T21:43:23.945Z,46
2016-04-20T21:44:23.605Z,46
2016-04-20T21:45:23.045Z,46
2016-04-20T21:46:22.610Z,46
2016-04-20T21:47:22.222Z,46
2016-04-20T21:48:23.271Z,46
2016-04-20T21:49:22.789Z,47
2016-04-20T21:50:22.714Z,47
2016-04-20T21:51:22.405Z,47
2016-04-20T21:52:22.220Z,47
2016-04-20T21:53:22.019Z,47
2016-04-20T21:54:21.944Z,47
2016-04-20T21:55:21.760Z,47
2016-04-20T21:56:21.574Z,47
2016-04-20T21:57:21.311Z,47
2016-04-20T21:58:22.329Z,47
2016-04-20T21:59:22.191Z,47
2016-04-20T22:00:22.210Z,47
2016-04-20T22:01:22.259Z,48
2016-04-20T22:02:22.575Z,48
2016-04-20T22:03:23.014Z,48
2016-04-20T22:04:23.221Z,47
2016-04-20T22:05:23.287Z,47
2016-04-20T22:06:23.335Z,47
2016-04-20T22:07:23.448Z,48
2016-04-20T22:08:24.465Z,48
2016-04-20T22:09:24.781Z,48
2016-04-20T22:10:25.221Z,48
2016-04-20T22:11:25.427Z,48
2016-04-20T22:12:25.867Z,48
2016-04-20T22:13:26.041Z,48
2016-04-20T22:14:26.482Z,48
2016-04-20T22:15:26.797Z,48
2016-04-20T22:16:27.112Z,48
2016-04-20T22:17:27.489Z,48
2016-04-20T22:18:28.384Z,48
2016-04-20T22:19:28.699Z,48
2016-04-20T22:20:29.014Z,48
2016-04-20T22:21:29.329Z,48
2016-04-20T22:22:29.707Z,48
2016-04-20T22:23:29.959Z,48
2016-04-20T22:24:31.180Z,48
2016-04-20T22:25:30.841Z,48
2016-04-20T22:26:30.905Z,48
2016-04-20T22:27:31.267Z,48
2016-04-20T22:28:32.301Z,48
2016-04-20T22:29:32.601Z,48
2016-04-20T22:30:32.916Z,48
2016-04-20T22:31:33.356Z,48
2016-04-20T22:32:33.546Z,48
2016-04-20T22:33:33.861Z,48
2016-04-20T22:34:34.176Z,48
2016-04-20T22:35:34.492Z,48
2016-04-20T22:36:34.931Z,48
2016-04-20T22:37:35.451Z,48
2016-04-20T22:38:36.453Z,48
2016-04-20T22:39:37.018Z,48
2016-04-20T22:40:37.599Z,49
2016-04-20T22:41:38.414Z,49
2016-04-20T22:42:39.229Z,49
2016-04-20T22:43:40.059Z,49